Terminal Aerodrome Forecast
Issued by NWS Northern Indiana

Home | Current Version | Previous Version | Graphics & Text | Print | Product List | Glossary On
Versions: 1 2 3 4 5 6 7 8 9 10 11 12 13 14
000
FTUS43 KIWX 262000 AAA
TAFFWA
TAF AMD
KFWA 262034Z 2621/2718 09005KT P6SM OVC020
     FM270500 33005KT P6SM OVC020
     FM271400 29010KT P6SM OVC025
      TEMPO 2714/2716 5SM -SHSN=

USA.gov is the U.S. government's official web portal to all federal, state and local government web resources and services.